Time;durP1;ratioP1;P1;durP2;ratioP2;P2;SDS_P1;SDS_P2;PMS_P1;PMS_P2;Temp;Humidity;BMP_temperature;BMP_pressure;BME280_temperature;BME280_humidity;BME280_pressure;Samples;Min_cycle;Max_cycle;Signal;HPM_P1;HPM_P2
2024/04/21 00:01:41;;;;;;;;;;;;;;;16.76;51.67;100137.34;5386644;26;1856;-54
2024/04/21 00:04:07;;;;;;;;;;;;;;;16.40;52.34;100151.38;5383198;26;1124;-49
2024/04/21 00:06:32;;;;;;;;;;;;;;;16.21;52.82;100148.50;5386720;26;1248;-53
2024/04/21 00:08:58;;;;;;;;;;;;;;;17.38;50.27;100156.69;5386895;26;1084;-54
2024/04/21 00:11:24;;;;;;;;;;;;;;;17.42;49.86;100160.50;5386585;26;1192;-54
2024/04/21 00:13:49;;;;;;;;;;;;;;;16.69;51.57;100167.03;5386546;26;1298;-53
2024/04/21 00:16:15;;;;;;;;;;;;;;;16.33;52.33;100167.34;5386054;26;1159;-52
2024/04/21 00:18:40;;;;;;;;;;;;;;;16.05;52.98;100167.81;5386783;26;1363;-51
2024/04/21 00:21:06;;;;;;;;;;;;;;;17.18;50.82;100171.50;5386168;26;1830;-52
2024/04/21 00:23:36;;;;;;;;;;;;;;;17.77;48.90;100166.63;5386730;26;1347;-52
2024/04/21 00:26:02;;;;;;;;;;;;;;;16.86;51.28;100174.84;5386491;26;1355;-53
2024/04/21 00:28:31;;;;;;;;;;;;;;;16.47;52.12;100184.00;5386364;26;1107;-51
2024/04/21 00:30:56;;;;;;;;;;;;;;;16.20;52.60;100180.63;5386989;26;1199;-53
2024/04/21 00:33:22;;;;;;;;;;;;;;;16.57;52.30;100183.88;5387035;26;1356;-54
2024/04/21 00:35:47;;;;;;;;;;;;;;;17.87;48.81;100181.38;5386175;26;1187;-50
2024/04/21 00:38:14;;;;;;;;;;;;;;;16.92;51.03;100187.44;5386341;26;1302;-50
2024/04/21 00:40:39;;;;;;;;;;;;;;;16.55;51.90;100186.09;5386548;26;1829;-53
2024/04/21 00:43:05;;;;;;;;;;;;;;;16.24;52.59;100186.34;5386633;26;1310;-54
2024/04/21 00:45:30;;;;;;;;;;;;;;;17.71;49.31;100189.00;5386212;26;1286;-54
2024/04/21 00:47:56;;;;;;;;;;;;;;;17.05;50.59;100181.25;5410223;26;1287;-54
2024/04/21 00:50:21;;;;;;;;;;;;;;;16.50;51.91;100180.66;5355246;26;1176;-55
2024/04/21 00:52:47;;;;;;;;;;;;;;;16.21;52.49;100181.44;5386187;26;1127;-54
2024/04/21 00:55:13;;;;;;;;;;;;;;;17.55;49.70;100177.38;5349718;26;1108;-54
2024/04/21 00:57:38;;;;;;;;;;;;;;;17.19;50.36;100177.81;5384946;26;1436;-53
2024/04/21 01:00:04;;;;;;;;;;;;;;;16.58;51.74;100169.06;5386156;26;1300;-52
2024/04/21 01:02:29;;;;;;;;;;;;;;;16.34;52.34;100178.03;5354487;26;1886;-54
2024/04/21 01:04:55;;;;;;;;;;;;;;;16.33;52.57;100176.41;5386569;26;1363;-52
2024/04/21 01:07:20;;;;;;;;;;;;;;;17.67;49.21;100168.69;5385536;26;1176;-53
2024/04/21 01:09:46;;;;;;;;;;;;;;;16.86;51.05;100172.91;5386281;26;1200;-52
2024/04/21 01:12:11;;;;;;;;;;;;;;;16.37;52.29;100188.44;5386007;26;1369;-52
2024/04/21 01:14:37;;;;;;;;;;;;;;;16.14;52.66;100186.41;5385552;26;1176;-53
2024/04/21 01:17:03;;;;;;;;;;;;;;;17.48;49.72;100179.69;5385498;26;1326;-54
2024/04/21 01:19:28;;;;;;;;;;;;;;;17.31;49.81;100180.97;5386134;26;1266;-53
2024/04/21 01:21:54;;;;;;;;;;;;;;;16.68;51.51;100182.69;5385373;26;1829;-52
2024/04/21 01:24:19;;;;;;;;;;;;;;;16.25;52.53;100185.25;5386099;26;1180;-54
2024/04/21 01:26:44;;;;;;;;;;;;;;;16.22;52.66;100194.03;5385231;26;1204;-54
2024/04/21 01:29:10;;;;;;;;;;;;;;;17.74;49.10;100191.13;5385706;26;1339;-53
2024/04/21 01:31:35;;;;;;;;;;;;;;;17.18;50.02;100190.75;5385553;26;1211;-51
2024/04/21 01:34:01;;;;;;;;;;;;;;;16.64;51.50;100200.84;5385239;26;1252;-52
2024/04/21 01:36:26;;;;;;;;;;;;;;;16.29;52.34;100200.03;5385530;26;1224;-53
2024/04/21 01:38:52;;;;;;;;;;;;;;;17.34;50.19;100204.31;5385005;26;1201;-57
2024/04/21 01:41:17;;;;;;;;;;;;;;;17.53;49.28;100196.09;5385024;26;1814;-52
2024/04/21 01:43:43;;;;;;;;;;;;;;;16.78;51.13;100195.50;5385620;26;1378;-52
2024/04/21 01:46:08;;;;;;;;;;;;;;;16.38;51.99;100201.06;5385598;26;1377;-53
2024/04/21 01:48:34;;;;;;;;;;;;;;;16.15;52.35;100204.53;5385355;26;1284;-50
2024/04/21 01:50:59;;;;;;;;;;;;;;;17.49;49.68;100201.38;5384884;26;1251;-51
2024/04/21 01:53:25;;;;;;;;;;;;;;;17.21;50.00;100211.31;5385400;26;1239;-53
2024/04/21 01:55:51;;;;;;;;;;;;;;;16.61;51.53;100217.91;5385412;26;1274;-53
2024/04/21 01:58:16;;;;;;;;;;;;;;;16.30;52.11;100217.28;5385047;26;1175;-51
2024/04/21 02:00:42;;;;;;;;;;;;;;;16.00;52.73;100214.47;5385285;26;1832;-52
2024/04/21 02:03:07;;;;;;;;;;;;;;;17.21;50.27;100219.56;5384957;26;1286;-51
2024/04/21 02:05:32;;;;;;;;;;;;;;;17.28;49.71;100220.03;5385086;26;1215;-51
2024/04/21 02:07:58;;;;;;;;;;;;;;;16.56;51.59;100216.03;5385120;26;1109;-53
2024/04/21 02:10:23;;;;;;;;;;;;;;;16.23;52.28;100220.38;5385097;26;1133;-53
2024/04/21 02:12:49;;;;;;;;;;;;;;;16.60;51.83;100219.00;5385141;26;1280;-54
2024/04/21 02:15:14;;;;;;;;;;;;;;;17.88;48.25;100222.31;5384722;26;1278;-51
2024/04/21 02:17:41;;;;;;;;;;;;;;;16.97;50.60;100212.13;5384908;26;1141;-53
2024/04/21 02:20:07;;;;;;;;;;;;;;;16.46;51.75;100221.56;5384578;26;1157;-52
2024/04/21 02:22:32;;;;;;;;;;;;;;;16.20;52.30;100213.53;5384564;26;1834;-54
2024/04/21 02:24:58;;;;;;;;;;;;;;;17.30;49.89;100217.78;5385074;26;1301;-53
2024/04/21 02:27:23;;;;;;;;;;;;;;;17.45;49.38;100225.88;5384708;26;1172;-51
2024/04/21 02:29:49;;;;;;;;;;;;;;;16.68;51.14;100231.28;5384770;26;1301;-54
2024/04/21 02:32:14;;;;;;;;;;;;;;;16.38;51.97;100236.72;5384778;26;1172;-52
2024/04/21 02:34:40;;;;;;;;;;;;;;;16.87;51.08;100236.88;5384977;26;1283;-51
2024/04/21 02:37:05;;;;;;;;;;;;;;;17.70;48.70;100243.16;5384856;26;1286;-54
2024/04/21 02:39:30;;;;;;;;;;;;;;;16.85;50.67;100241.84;5383872;26;1222;-53
2024/04/21 02:41:56;;;;;;;;;;;;;;;16.45;51.73;100254.78;5384733;26;1829;-52
2024/04/21 02:44:21;;;;;;;;;;;;;;;16.16;52.21;100255.50;5384293;26;1204;-50
2024/04/21 02:46:48;;;;;;;;;;;;;;;16.22;52.36;100254.41;5388233;26;1278;-52
2024/04/21 02:49:13;;;;;;;;;;;;;;;17.71;48.87;100257.72;5387991;26;1235;-52
2024/04/21 02:51:39;;;;;;;;;;;;;;;17.08;50.04;100248.50;5387341;26;1155;-53
2024/04/21 02:54:04;;;;;;;;;;;;;;;16.45;51.65;100265.75;5388457;26;1223;-52
2024/04/21 02:56:30;;;;;;;;;;;;;;;16.20;52.09;100262.06;5387944;26;1280;-54
2024/04/21 02:58:55;;;;;;;;;;;;;;;17.23;49.89;100259.34;5388078;26;1199;-53
2024/04/21 03:01:21;;;;;;;;;;;;;;;17.42;49.29;100273.19;5387278;26;1822;-54
2024/04/21 03:03:46;;;;;;;;;;;;;;;16.69;51.14;100265.84;5387615;26;1351;-53
2024/04/21 03:06:12;;;;;;;;;;;;;;;16.30;51.87;100267.50;5388188;26;1184;-56
2024/04/21 03:08:37;;;;;;;;;;;;;;;16.09;52.46;100272.31;5387541;26;1179;-54
2024/04/21 03:11:03;;;;;;;;;;;;;;;17.49;49.38;100269.25;5387502;26;1129;-53
2024/04/21 03:13:28;;;;;;;;;;;;;;;17.12;50.05;100273.50;5387755;26;1192;-52
2024/04/21 03:15:54;;;;;;;;;;;;;;;16.53;51.43;100276.16;5386052;26;1496;-56
2024/04/21 03:18:20;;;;;;;;;;;;;;;16.18;52.33;100276.06;5387436;26;1175;-57
2024/04/21 03:20:55;;;;;;;;;;;;;;;16.74;51.36;100293.28;5387233;26;1829;-57
2024/04/21 03:23:21;;;;;;;;;;;;;;;17.81;48.27;100282.38;5387460;26;1199;-53
2024/04/21 03:25:47;;;;;;;;;;;;;;;16.83;50.77;100293.47;5386196;26;1484;-56
2024/04/21 03:28:12;;;;;;;;;;;;;;;16.43;51.74;100288.00;5387300;26;1092;-53
2024/04/21 03:30:38;;;;;;;;;;;;;;;16.14;52.22;100282.41;5386816;26;1255;-54
2024/04/21 03:33:03;;;;;;;;;;;;;;;17.28;49.93;100285.97;5387105;26;1477;-53
2024/04/21 03:35:29;;;;;;;;;;;;;;;17.55;48.91;100279.09;5385617;26;1625;-55
2024/04/21 03:37:54;;;;;;;;;;;;;;;16.68;50.98;100278.78;5386754;26;1259;-53
2024/04/21 03:40:20;;;;;;;;;;;;;;;16.40;51.66;100289.38;5386253;26;1825;-54
2024/04/21 03:42:45;;;;;;;;;;;;;;;16.15;52.20;100303.28;5386117;26;1393;-52
2024/04/21 03:45:11;;;;;;;;;;;;;;;17.01;50.71;100303.81;5386399;26;1524;-52
2024/04/21 03:47:36;;;;;;;;;;;;;;;17.55;49.26;100299.16;5386708;26;1207;-51
2024/04/21 03:50:02;;;;;;;;;;;;;;;16.65;51.16;100306.81;5386147;26;1223;-54
2024/04/21 03:52:27;;;;;;;;;;;;;;;16.30;52.06;100311.41;5384391;26;1528;-53
2024/04/21 03:54:53;;;;;;;;;;;;;;;16.11;52.16;100307.69;5387044;26;1091;-52
2024/04/21 03:57:18;;;;;;;;;;;;;;;16.39;52.08;100315.19;5386269;26;1284;-57
2024/04/21 03:59:44;;;;;;;;;;;;;;;17.76;48.61;100320.91;5386828;26;1181;-60
2024/04/21 04:02:09;;;;;;;;;;;;;;;16.86;50.39;100309.41;5383222;26;2872;-63
2024/04/21 04:04:35;;;;;;;;;;;;;;;16.51;51.91;100311.28;5384618;26;1195;-62
2024/04/21 04:07:00;;;;;;;;;;;;;;;17.09;51.01;100310.59;5384185;26;1151;-60
2024/04/21 04:09:26;;;;;;;;;;;;;;;16.29;51.57;100309.75;5385772;26;1097;-62
2024/04/21 04:11:51;;;;;;;;;;;;;;;16.12;50.33;100321.09;5387056;26;1184;-60
2024/04/21 04:14:17;;;;;;;;;;;;;;;16.96;51.17;100317.59;5386959;26;1289;-60
2024/04/21 04:16:42;;;;;;;;;;;;;;;16.26;51.10;100313.09;5384154;26;1117;-59
2024/04/21 04:19:08;;;;;;;;;;;;;;;16.02;50.09;100321.97;5386364;26;1180;-60
2024/04/21 04:21:34;;;;;;;;;;;;;;;16.98;50.87;100331.84;5386855;26;1867;-58
2024/04/21 04:23:59;;;;;;;;;;;;;;;16.39;50.84;100320.66;5386603;26;1271;-63
2024/04/21 04:26:25;;;;;;;;;;;;;;;16.13;49.84;100317.28;5386379;26;1235;-63
2024/04/21 04:28:50;;;;;;;;;;;;;;;16.73;50.45;100325.41;5386099;26;1147;-62
2024/04/21 04:31:16;;;;;;;;;;;;;;;16.30;50.98;100324.28;5386576;26;1159;-60
2024/04/21 04:33:41;;;;;;;;;;;;;;;16.21;50.76;100318.59;5385976;26;2864;-59
2024/04/21 04:36:07;;;;;;;;;;;;;;;17.16;50.08;100315.75;5386486;26;1235;-60
2024/04/21 04:38:32;;;;;;;;;;;;;;;16.37;50.55;100322.09;5386928;26;1191;-60
2024/04/21 04:40:58;;;;;;;;;;;;;;;16.17;49.34;100323.84;5385933;26;1868;-60
2024/04/21 04:43:23;;;;;;;;;;;;;;;16.02;48.49;100319.22;5385838;26;1297;-60
2024/04/21 04:45:49;;;;;;;;;;;;;;;16.36;49.21;100332.22;5386102;26;1187;-61
2024/04/21 04:48:15;;;;;;;;;;;;;;;16.47;50.16;100335.75;5386326;26;1228;-60
2024/04/21 04:50:40;;;;;;;;;;;;;;;16.04;49.69;100332.66;5386275;26;1266;-58
2024/04/21 04:53:06;;;;;;;;;;;;;;;17.28;49.59;100346.44;5385583;26;1587;-61
2024/04/21 04:55:31;;;;;;;;;;;;;;;16.45;50.40;100346.16;5385881;26;1290;-59
2024/04/21 04:57:57;;;;;;;;;;;;;;;18.01;48.78;100346.53;5386225;26;1164;-61
2024/04/21 05:00:23;;;;;;;;;;;;;;;17.55;49.99;100345.06;5386224;26;1825;-63
2024/04/21 05:02:48;;;;;;;;;;;;;;;16.81;50.11;100353.38;5385777;26;3003;-60
2024/04/21 05:05:14;;;;;;;;;;;;;;;16.51;49.29;100346.94;5383773;26;1612;-62
2024/04/21 05:07:39;;;;;;;;;;;;;;;16.31;48.48;100340.47;5383616;26;2847;-64
2024/04/21 05:10:05;;;;;;;;;;;;;;;17.03;49.82;100351.03;5386471;26;1180;-60
2024/04/21 05:12:31;;;;;;;;;;;;;;;16.71;50.35;100346.81;5385949;26;1236;-63
2024/04/21 05:14:56;;;;;;;;;;;;;;;16.38;49.45;100342.91;5385885;26;1208;-63
2024/04/21 05:17:22;;;;;;;;;;;;;;;16.88;50.17;100349.22;5385684;26;1168;-63
2024/04/21 05:19:47;;;;;;;;;;;;;;;16.67;50.23;100339.47;5386172;26;1183;-63
2024/04/21 05:22:13;;;;;;;;;;;;;;;16.37;49.20;100350.34;5385371;26;1826;-63
2024/04/21 05:24:38;;;;;;;;;;;;;;;16.69;49.62;100346.31;5385399;26;1184;-62
2024/04/21 05:27:04;;;;;;;;;;;;;;;16.70;50.04;100347.94;5385910;26;1143;-65
2024/04/21 05:29:29;;;;;;;;;;;;;;;16.30;49.58;100341.59;5385260;26;1164;-60
2024/04/21 05:31:55;;;;;;;;;;;;;;;16.77;49.65;100345.72;5385744;26;1225;-63
2024/04/21 05:34:20;;;;;;;;;;;;;;;16.62;49.84;100355.94;5385673;26;1270;-64
2024/04/21 05:36:46;;;;;;;;;;;;;;;16.72;50.25;100344.94;5385483;26;1263;-65
2024/04/21 05:39:11;;;;;;;;;;;;;;;17.95;48.61;100354.03;5386056;26;1304;-65
2024/04/21 05:41:37;;;;;;;;;;;;;;;16.84;49.80;100353.59;5384814;26;1825;-64
2024/04/21 05:44:03;;;;;;;;;;;;;;;16.88;50.14;100359.34;5383949;26;1390;-60
2024/04/21 05:46:28;;;;;;;;;;;;;;;17.02;50.17;100363.13;5385140;26;1358;-61
2024/04/21 05:48:54;;;;;;;;;;;;;;;16.67;49.31;100351.25;5385460;26;1045;-60
2024/04/21 05:51:19;;;;;;;;;;;;;;;16.38;48.67;100359.38;5385195;26;1275;-60
2024/04/21 05:53:45;;;;;;;;;;;;;;;17.25;49.32;100363.47;5384923;26;1196;-60
2024/04/21 05:56:10;;;;;;;;;;;;;;;16.49;49.78;100360.16;5385108;26;1282;-59
2024/04/21 05:58:36;;;;;;;;;;;;;;;16.38;48.44;100365.72;5385278;26;1339;-61
2024/04/21 06:01:01;;;;;;;;;;;;;;;16.19;47.84;100373.72;5385233;26;1857;-58
2024/04/21 06:03:27;;;;;;;;;;;;;;;17.04;48.73;100380.16;5385108;26;1211;-59
2024/04/21 06:05:53;;;;;;;;;;;;;;;16.37;49.51;100369.53;5384299;26;1151;-61
2024/04/21 06:08:18;;;;;;;;;;;;;;;18.07;48.38;100379.16;5385375;26;1250;-61
2024/04/21 06:10:44;;;;;;;;;;;;;;;17.39;49.78;100374.63;5385150;26;1313;-60
2024/04/21 06:13:10;;;;;;;;;;;;;;;16.69;49.86;100387.50;5385072;26;1153;-60
2024/04/21 06:15:35;;;;;;;;;;;;;;;16.53;48.83;100381.25;5385013;26;1286;-58
2024/04/21 06:18:01;;;;;;;;;;;;;;;17.16;49.54;100387.19;5383993;26;1312;-60
2024/04/21 06:20:27;;;;;;;;;;;;;;;16.67;49.36;100384.19;5387566;26;1868;-58
2024/04/21 06:22:52;;;;;;;;;;;;;;;16.42;48.88;100385.16;5388039;26;1255;-58
2024/04/21 06:25:18;;;;;;;;;;;;;;;17.08;49.36;100386.72;5388158;26;1228;-58
2024/04/21 06:27:44;;;;;;;;;;;;;;;16.62;49.10;100376.00;5387746;26;1334;-58
2024/04/21 06:30:09;;;;;;;;;;;;;;;17.01;49.33;100374.38;5387899;26;1123;-58
2024/04/21 06:32:35;;;;;;;;;;;;;;;16.87;49.67;100385.16;5388278;26;1223;-59
2024/04/21 06:35:00;;;;;;;;;;;;;;;16.49;49.13;100385.66;5388399;26;1168;-59
2024/04/21 06:37:26;;;;;;;;;;;;;;;16.28;48.46;100379.44;5388074;26;1259;-59
2024/04/21 06:39:51;;;;;;;;;;;;;;;16.21;47.78;100377.00;5364875;26;1160;-59
2024/04/21 06:42:17;;;;;;;;;;;;;;;16.98;49.19;100384.03;5387521;26;1848;-58
2024/04/21 06:44:42;;;;;;;;;;;;;;;16.39;49.19;100386.53;5387934;26;1185;-57
2024/04/21 06:47:09;;;;;;;;;;;;;;;16.17;48.42;100380.59;5387697;26;1117;-57
2024/04/21 06:49:36;;;;;;;;;;;;;;;17.07;48.75;100385.06;5388288;26;1238;-54
2024/04/21 06:52:05;;;;;;;;;;;;;;;16.52;49.20;100384.28;5387786;26;1172;-58
2024/04/21 06:54:30;;;;;;;;;;;;;;;16.18;48.55;100379.50;5387873;26;1071;-58
2024/04/21 06:56:56;;;;;;;;;;;;;;;17.05;48.58;100381.75;5387707;26;1220;-57
2024/04/21 06:59:22;;;;;;;;;;;;;;;16.30;49.09;100380.00;5387670;26;1366;-58
2024/04/21 07:01:49;;;;;;;;;;;;;;;16.56;48.86;100382.63;5387787;26;1871;-59
2024/04/21 07:04:14;;;;;;;;;;;;;;;16.86;49.16;100383.53;5387505;26;1285;-59
2024/04/21 07:06:40;;;;;;;;;;;;;;;16.32;49.12;100379.72;5386926;26;1285;-58
2024/04/21 07:09:05;;;;;;;;;;;;;;;16.12;48.32;100386.09;5387534;26;1259;-59
2024/04/21 07:11:31;;;;;;;;;;;;;;;15.97;47.67;100384.25;5387130;26;1255;-59
2024/04/21 07:13:56;;;;;;;;;;;;;;;17.23;48.39;100387.69;5387168;26;1402;-58
2024/04/21 07:16:22;;;;;;;;;;;;;;;16.39;49.12;100392.03;5387445;26;1434;-59
2024/04/21 07:18:48;;;;;;;;;;;;;;;17.83;47.99;100400.34;5386616;26;1023;-59
2024/04/21 07:21:14;;;;;;;;;;;;;;;17.56;48.86;100394.25;5385476;26;1870;-57
2024/04/21 07:23:39;;;;;;;;;;;;;;;16.80;49.50;100395.66;5386514;26;1267;-57
2024/04/21 07:26:05;;;;;;;;;;;;;;;16.37;49.14;100394.25;5387582;26;1161;-56
2024/04/21 07:28:30;;;;;;;;;;;;;;;16.31;48.17;100389.03;5387388;26;1272;-57
2024/04/21 07:30:56;;;;;;;;;;;;;;;16.95;49.45;100394.78;5386683;26;1167;-56
2024/04/21 07:33:22;;;;;;;;;;;;;;;16.61;49.76;100393.56;5387850;26;1235;-59
2024/04/21 07:35:48;;;;;;;;;;;;;;;16.28;48.98;100395.09;5387515;26;1215;-59
2024/04/21 07:38:13;;;;;;;;;;;;;;;16.20;48.02;100388.25;5386964;26;1417;-58
2024/04/21 07:40:39;;;;;;;;;;;;;;;16.92;48.75;100398.91;5386924;26;1869;-58
2024/04/21 07:43:04;;;;;;;;;;;;;;;16.63;49.46;100396.03;5386450;26;1339;-56
2024/04/21 07:45:30;;;;;;;;;;;;;;;16.72;49.58;100395.16;5387202;26;1309;-57
2024/04/21 07:47:55;;;;;;;;;;;;;;;17.79;48.28;100394.59;5386858;26;1275;-57
2024/04/21 07:50:21;;;;;;;;;;;;;;;16.83;49.60;100395.06;5386758;26;1259;-57
2024/04/21 07:52:47;;;;;;;;;;;;;;;16.48;49.01;100392.28;5386916;26;1125;-58
2024/04/21 07:55:12;;;;;;;;;;;;;;;16.39;48.30;100392.03;5386545;26;1228;-58
2024/04/21 07:57:38;;;;;;;;;;;;;;;17.12;49.03;100392.44;5387175;26;1120;-58
2024/04/21 08:00:05;;;;;;;;;;;;;;;16.50;49.21;100392.81;5386469;26;1200;-60
2024/04/21 08:02:36;;;;;;;;;;;;;;;16.28;48.42;100395.91;5386534;26;1826;-59
2024/04/21 08:05:02;;;;;;;;;;;;;;;16.12;47.79;100389.69;5387006;26;1194;-60
2024/04/21 08:07:27;;;;;;;;;;;;;;;16.72;48.79;100395.16;5386274;26;1052;-57
2024/04/21 08:09:53;;;;;;;;;;;;;;;17.26;48.77;100389.84;5385948;26;1246;-58
2024/04/21 08:12:18;;;;;;;;;;;;;;;18.49;47.51;100395.19;5386944;26;1522;-58
2024/04/21 08:14:44;;;;;;;;;;;;;;;17.19;49.73;100408.59;5386442;26;1172;-57
2024/04/21 08:17:09;;;;;;;;;;;;;;;16.76;49.38;100395.41;5386663;26;1177;-60
2024/04/21 08:19:35;;;;;;;;;;;;;;;16.56;48.53;100402.66;5386081;26;1220;-59
2024/04/21 08:22:01;;;;;;;;;;;;;;;16.49;47.84;100398.56;5386250;26;1829;-56
2024/04/21 08:24:26;;;;;;;;;;;;;;;16.34;47.48;100405.78;5386464;26;1264;-55
2024/04/21 08:26:54;;;;;;;;;;;;;;;16.51;48.14;100399.94;5386629;26;1287;-56
2024/04/21 08:29:22;;;;;;;;;;;;;;;16.85;49.09;100399.19;5386689;26;1180;-58
2024/04/21 08:31:47;;;;;;;;;;;;;;;16.39;49.02;100408.47;5385742;26;1256;-66
2024/04/21 08:34:13;;;;;;;;;;;;;;;16.32;47.93;100405.22;5386332;26;1286;-62
2024/04/21 08:36:38;;;;;;;;;;;;;;;16.20;47.50;100400.06;5386543;26;1236;-61
2024/04/21 08:39:04;;;;;;;;;;;;;;;16.04;47.35;100404.78;5386511;26;1314;-62
2024/04/21 08:41:30;;;;;;;;;;;;;;;17.08;48.24;100403.19;5386077;26;1834;-63
2024/04/21 08:43:56;;;;;;;;;;;;;;;16.22;49.09;100408.84;5386023;26;1025;-63
2024/04/21 08:46:21;;;;;;;;;;;;;;;16.93;48.93;100409.59;5355209;26;1172;-64
2024/04/21 08:48:47;;;;;;;;;;;;;;;16.92;49.41;100407.94;5386061;26;1266;-61
2024/04/21 08:51:12;;;;;;;;;;;;;;;16.53;49.09;100396.91;5349375;26;1208;-66
2024/04/21 08:53:39;;;;;;;;;;;;;;;16.39;49.19;100404.94;5376388;26;1293;-65
2024/04/21 08:56:06;;;;;;;;;;;;;;;16.99;49.30;100404.09;5353538;26;1999;-62
2024/04/21 08:58:32;;;;;;;;;;;;;;;16.45;49.43;100409.28;5355268;26;1183;-63
2024/04/21 09:00:57;;;;;;;;;;;;;;;16.35;48.40;100412.88;5385939;26;1868;-65
2024/04/21 09:03:23;;;;;;;;;;;;;;;17.10;48.79;100416.63;5385601;26;1201;-61
2024/04/21 09:05:52;;;;;;;;;;;;;;;16.66;49.43;100407.28;5355264;26;1263;-65
2024/04/21 09:08:17;;;;;;;;;;;;;;;16.32;48.97;100421.69;5352539;26;1134;-63
2024/04/21 09:10:43;;;;;;;;;;;;;;;17.26;48.75;100411.84;5385569;26;1187;-62
2024/04/21 09:13:09;;;;;;;;;;;;;;;16.55;49.38;100412.00;5385611;26;1223;-62
2024/04/21 09:15:34;;;;;;;;;;;;;;;16.36;48.55;100420.03;5385535;26;1267;-62
2024/04/21 09:18:00;;;;;;;;;;;;;;;16.18;48.21;100418.72;5386082;26;1341;-65
2024/04/21 09:20:25;;;;;;;;;;;;;;;16.86;48.87;100416.50;5385487;26;1864;-63
2024/04/21 09:22:51;;;;;;;;;;;;;;;16.35;48.89;100418.38;5385236;26;1276;-61
2024/04/21 09:25:17;;;;;;;;;;;;;;;16.90;48.77;100423.91;5385600;26;1254;-61
2024/04/21 09:27:46;;;;;;;;;;;;;;;16.68;49.18;100424.28;5385426;26;1117;-62
2024/04/21 09:30:11;;;;;;;;;;;;;;;16.36;48.61;100417.28;5385604;26;1160;-61
2024/04/21 09:32:37;;;;;;;;;;;;;;;16.49;48.76;100423.28;5384209;26;1382;-63
2024/04/21 09:35:02;;;;;;;;;;;;;;;16.92;49.10;100431.88;5385412;26;1298;-66
2024/04/21 09:37:28;;;;;;;;;;;;;;;16.43;48.90;100427.97;5385567;26;1349;-61
2024/04/21 09:39:53;;;;;;;;;;;;;;;16.22;48.19;100421.75;5385747;26;1162;-62
2024/04/21 09:42:19;;;;;;;;;;;;;;;16.16;47.79;100415.44;5348730;26;1825;-63
2024/04/21 09:44:45;;;;;;;;;;;;;;;16.93;48.31;100417.03;5383674;26;1115;-64
2024/04/21 09:47:10;;;;;;;;;;;;;;;16.53;48.93;100419.69;5384864;26;1188;-64
2024/04/21 09:49:36;;;;;;;;;;;;;;;16.28;48.28;100423.34;5354818;26;1252;-61
2024/04/21 09:52:03;;;;;;;;;;;;;;;16.92;48.44;100424.44;5385316;26;1238;-65
2024/04/21 09:54:28;;;;;;;;;;;;;;;16.61;49.19;100423.78;5384457;26;1231;-62
2024/04/21 09:56:59;;;;;;;;;;;;;;;16.23;48.66;100426.94;5384851;26;1245;-63
2024/04/21 09:59:25;;;;;;;;;;;;;;;16.39;48.28;100435.94;5355104;26;1252;-62
2024/04/21 10:01:51;;;;;;;;;;;;;;;16.88;48.69;100430.75;5385089;26;1826;-63
2024/04/21 10:04:19;;;;;;;;;;;;;;;16.45;48.62;100444.97;5353989;26;1355;-61
2024/04/21 10:06:45;;;;;;;;;;;;;;;16.24;48.17;100431.34;5384588;26;1197;-63
2024/04/21 10:09:11;;;;;;;;;;;;;;;16.08;48.31;100430.53;5385365;26;1346;-64
2024/04/21 10:11:36;;;;;;;;;;;;;;;16.97;48.42;100429.09;5354429;26;1283;-64
2024/04/21 10:14:02;;;;;;;;;;;;;;;17.04;48.87;100435.09;5384458;26;1151;-64
2024/04/21 10:16:28;;;;;;;;;;;;;;;18.47;46.97;100443.09;5384791;26;1172;-65
2024/04/21 10:19:03;;;;;;;;;;;;;;;17.30;49.25;100437.63;5384725;26;1365;-64
2024/04/21 10:21:29;;;;;;;;;;;;;;;16.79;48.94;100441.53;5384827;26;1860;-60
2024/04/21 10:23:54;;;;;;;;;;;;;;;16.65;48.38;100433.09;5384796;26;1398;-62
2024/04/21 10:26:20;;;;;;;;;;;;;;;16.41;48.08;100446.63;5353417;26;1274;-63
2024/04/21 10:28:45;;;;;;;;;;;;;;;16.35;47.34;100432.09;5384604;26;1188;-65
2024/04/21 10:31:11;;;;;;;;;;;;;;;17.52;48.37;100422.63;5384322;26;1305;-65
2024/04/21 10:33:40;;;;;;;;;;;;;;;16.70;49.22;100433.03;5384045;26;1638;-65
2024/04/21 10:36:18;;;;;;;;;;;;;;;16.41;48.63;100432.91;5384291;26;1085;-63
2024/04/21 10:38:52;;;;;;;;;;;;;;;16.27;48.10;100420.88;5384490;26;1127;-63
2024/04/21 10:41:20;;;;;;;;;;;;;;;16.30;48.07;100425.81;5384256;26;1821;-66
2024/04/21 10:43:45;;;;;;;;;;;;;;;17.12;48.82;100422.66;5384019;26;1290;-64
2024/04/21 10:46:11;;;;;;;;;;;;;;;16.49;49.01;100424.09;5353215;26;1337;-64
2024/04/21 10:48:36;;;;;;;;;;;;;;;17.68;48.03;100426.06;5384926;26;1298;-65
2024/04/21 10:51:02;;;;;;;;;;;;;;;17.04;49.24;100424.09;5384174;26;1137;-64
2024/04/21 10:53:27;;;;;;;;;;;;;;;16.58;49.09;100416.09;5347706;26;1245;-63
2024/04/21 10:55:53;;;;;;;;;;;;;;;16.40;48.55;100423.84;5370349;26;1286;-63
2024/04/21 10:58:19;;;;;;;;;;;;;;;16.31;47.99;100427.47;5353602;26;1188;-66
2024/04/21 11:00:45;;;;;;;;;;;;;;;17.17;48.69;100416.31;5384017;26;1866;-65
2024/04/21 11:03:10;;;;;;;;;;;;;;;16.55;48.88;100412.00;5383310;26;1302;-66
2024/04/21 11:05:40;;;;;;;;;;;;;;;16.76;48.90;100420.94;5384144;26;1120;-62
2024/04/21 11:08:05;;;;;;;;;;;;;;;17.22;48.82;100413.50;5386969;26;1168;-61
2024/04/21 11:10:31;;;;;;;;;;;;;;;16.58;49.20;100424.34;5356770;26;1129;-60
2024/04/21 11:12:57;;;;;;;;;;;;;;;16.46;48.44;100421.09;5356521;26;1277;-60
2024/04/21 11:15:22;;;;;;;;;;;;;;;16.33;47.91;100420.59;5387590;26;1160;-60
2024/04/21 11:17:57;;;;;;;;;;;;;;;16.20;47.53;100415.69;5387248;26;1251;-60
2024/04/21 11:20:23;;;;;;;;;;;;;;;17.35;48.23;100418.38;5386985;26;1865;-63
2024/04/21 11:22:48;;;;;;;;;;;;;;;16.61;48.99;100415.53;5386993;26;1528;-61
2024/04/21 11:25:14;;;;;;;;;;;;;;;16.30;48.71;100423.91;5356454;26;1294;-63
2024/04/21 11:27:39;;;;;;;;;;;;;;;16.20;48.05;100415.69;5366814;26;1336;-59
2024/04/21 11:30:05;;;;;;;;;;;;;;;17.19;47.98;100416.84;5382237;26;1286;-67
2024/04/21 11:32:30;;;;;;;;;;;;;;;16.52;48.74;100420.81;5384785;26;1405;-67
2024/04/21 11:34:57;;;;;;;;;;;;;;;16.29;48.21;100422.25;5384654;26;1491;-60
2024/04/21 11:37:22;;;;;;;;;;;;;;;16.13;47.76;100415.19;5386736;26;1210;-63
2024/04/21 11:39:48;;;;;;;;;;;;;;;17.41;47.79;100417.19;5387076;26;1392;-62
2024/04/21 11:42:13;;;;;;;;;;;;;;;16.58;48.76;100416.09;5350571;26;1876;-61
2024/04/21 11:44:40;;;;;;;;;;;;;;;16.35;48.19;100423.88;5381073;26;1242;-61
2024/04/21 11:47:06;;;;;;;;;;;;;;;16.81;48.56;100424.75;5355745;26;1272;-61
2024/04/21 11:49:31;;;;;;;;;;;;;;;17.01;48.67;100421.94;5387571;26;1181;-66
2024/04/21 11:51:57;;;;;;;;;;;;;;;16.47;48.75;100426.31;5387152;26;1164;-62
2024/04/21 11:54:22;;;;;;;;;;;;;;;17.62;47.77;100417.03;5386914;26;1204;-62
2024/04/21 11:56:50;;;;;;;;;;;;;;;16.81;48.85;100416.53;5386817;26;1047;-63
2024/04/21 11:59:15;;;;;;;;;;;;;;;17.82;47.65;100413.25;5386452;26;1129;-63
2024/04/21 12:01:41;;;;;;;;;;;;;;;17.90;47.86;100411.81;5386911;26;1826;-63
2024/04/21 12:04:06;;;;;;;;;;;;;;;17.04;48.73;100413.09;5356133;26;1251;-61
2024/04/21 12:06:32;;;;;;;;;;;;;;;16.74;48.46;100412.16;5386607;26;1184;-61
2024/04/21 12:08:57;;;;;;;;;;;;;;;16.58;48.04;100424.34;5386258;26;1291;-63
2024/04/21 12:11:24;;;;;;;;;;;;;;;16.41;47.53;100413.69;5386483;26;1075;-64
2024/04/21 12:13:49;;;;;;;;;;;;;;;16.41;47.01;100417.28;5386978;26;1299;-66
2024/04/21 12:16:15;;;;;;;;;;;;;;;17.14;48.18;100406.72;5384250;26;1725;-66
2024/04/21 12:18:40;;;;;;;;;;;;;;;16.48;48.66;100402.41;5386604;26;1206;-66
2024/04/21 12:21:07;;;;;;;;;;;;;;;16.37;48.05;100396.97;5386081;26;1884;-66
2024/04/21 12:23:32;;;;;;;;;;;;;;;16.30;47.34;100396.47;5385364;26;1719;-65
2024/04/21 12:25:58;;;;;;;;;;;;;;;17.17;48.08;100388.84;5386266;26;1223;-63
2024/04/21 12:28:23;;;;;;;;;;;;;;;16.49;48.58;100376.63;5385545;26;1135;-63
2024/04/21 12:30:49;;;;;;;;;;;;;;;16.45;47.71;100387.31;5386211;26;1168;-64
2024/04/21 12:33:14;;;;;;;;;;;;;;;17.20;48.13;100393.75;5385838;26;1187;-61
2024/04/21 12:35:41;;;;;;;;;;;;;;;16.54;48.55;100382.09;5386397;26;1193;-63
2024/04/21 12:38:07;;;;;;;;;;;;;;;16.36;48.10;100378.88;5386408;26;1283;-62
2024/04/21 12:40:32;;;;;;;;;;;;;;;16.24;47.53;100381.97;5385671;26;1833;-64